createdAt,value
2018-09-12T00:00:43.721Z,21.10
2018-09-12T00:03:11.885Z,21.00
2018-09-12T00:05:40.101Z,20.92
2018-09-12T00:08:08.330Z,20.91
2018-09-12T00:10:36.647Z,20.84
2018-09-12T00:13:04.798Z,20.80
2018-09-12T00:15:33.042Z,20.73
2018-09-12T00:18:01.317Z,20.79
2018-09-12T00:20:29.595Z,20.91
2018-09-12T00:22:57.742Z,20.82
2018-09-12T00:25:26.220Z,20.67
2018-09-12T00:27:54.499Z,20.77
2018-09-12T00:30:22.697Z,20.66
2018-09-12T00:32:50.894Z,20.60
2018-09-12T00:35:19.110Z,20.48
2018-09-12T00:37:47.316Z,20.42
2018-09-12T00:40:15.492Z,20.41
2018-09-12T00:42:50.580Z,20.42
2018-09-12T00:45:18.828Z,20.43
2018-09-12T00:47:47.082Z,20.37
2018-09-12T00:50:15.286Z,20.41
2018-09-12T00:52:43.560Z,20.33
2018-09-12T00:55:11.824Z,20.32
2018-09-12T00:57:40.067Z,20.27
2018-09-12T01:00:08.355Z,20.35
2018-09-12T01:02:36.543Z,20.33
2018-09-12T01:05:04.833Z,20.31
2018-09-12T01:07:33.001Z,20.18
2018-09-12T01:10:01.201Z,20.20
2018-09-12T01:12:29.357Z,20.10
2018-09-12T01:14:57.511Z,20.06
2018-09-12T01:17:26.473Z,20.00
2018-09-12T01:19:54.651Z,20.02
2018-09-12T01:22:22.781Z,19.97
2018-09-12T01:24:50.930Z,20.02
2018-09-12T01:27:19.108Z,20.03
2018-09-12T01:29:47.380Z,20.05
2018-09-12T01:32:15.568Z,20.03
2018-09-12T01:34:43.831Z,19.96
2018-09-12T01:37:12.072Z,19.94
2018-09-12T01:39:40.350Z,19.88
2018-09-12T01:42:08.545Z,19.94
2018-09-12T01:44:36.843Z,19.88
2018-09-12T01:47:05.019Z,20.01
2018-09-12T01:49:33.199Z,19.90
2018-09-12T01:52:01.535Z,19.83
2018-09-12T01:54:29.809Z,19.76
2018-09-12T01:56:58.068Z,19.81
2018-09-12T01:59:26.346Z,19.81
2018-09-12T02:01:54.573Z,19.71
2018-09-12T02:04:22.739Z,19.69
2018-09-12T02:06:50.911Z,19.76
2018-09-12T02:09:19.091Z,19.76
2018-09-12T02:11:48.083Z,19.74
2018-09-12T02:14:16.223Z,19.79
2018-09-12T02:16:44.387Z,19.55
2018-09-12T02:19:12.533Z,19.54
2018-09-12T02:21:40.711Z,19.49
2018-09-12T02:24:08.862Z,19.45
2018-09-12T02:26:36.981Z,19.51
2018-09-12T02:29:05.405Z,19.47
2018-09-12T02:31:33.531Z,19.41
2018-09-12T02:34:01.716Z,19.42
2018-09-12T02:36:30.254Z,19.35
2018-09-12T02:39:00.335Z,19.36
2018-09-12T02:41:28.457Z,19.36
2018-09-12T02:43:56.622Z,19.35
2018-09-12T02:46:24.759Z,19.23
2018-09-12T02:48:53.101Z,19.21
2018-09-12T02:51:21.281Z,19.24
2018-09-12T02:53:49.545Z,19.14
2018-09-12T02:56:18.242Z,19.19
2018-09-12T02:58:46.372Z,19.24
2018-09-12T03:01:14.559Z,19.29
2018-09-12T03:03:42.813Z,19.24
2018-09-12T03:06:11.037Z,19.23
2018-09-12T03:08:39.235Z,19.25
2018-09-12T03:11:07.428Z,19.13
2018-09-12T03:13:35.697Z,19.07
2018-09-12T03:16:04.093Z,19.06
2018-09-12T03:18:32.366Z,19.06
2018-09-12T03:21:00.724Z,19.03
2018-09-12T03:23:28.806Z,19.01
2018-09-12T03:25:57.001Z,18.98
2018-09-12T03:28:25.329Z,18.95
2018-09-12T03:30:53.494Z,18.89
2018-09-12T03:33:21.955Z,19.01
2018-09-12T03:35:50.563Z,19.17
2018-09-12T03:38:18.914Z,19.03
2018-09-12T03:40:47.372Z,18.88
2018-09-12T03:43:15.674Z,18.94
2018-09-12T03:45:43.846Z,18.89
2018-09-12T03:48:12.202Z,18.93
2018-09-12T03:50:40.370Z,18.92
2018-09-12T03:53:08.536Z,18.74
2018-09-12T03:55:36.858Z,18.79
2018-09-12T03:58:05.456Z,18.77
2018-09-12T04:00:33.602Z,18.78
2018-09-12T04:03:01.770Z,18.74
2018-09-12T04:05:29.925Z,18.70
2018-09-12T04:07:58.196Z,18.69
2018-09-12T04:10:26.372Z,18.70
2018-09-12T04:12:54.605Z,18.70
2018-09-12T04:15:22.818Z,18.61
2018-09-12T04:17:51.027Z,18.64
2018-09-12T04:20:19.204Z,18.65
2018-09-12T04:22:47.675Z,18.60
2018-09-12T04:25:15.938Z,18.77
2018-09-12T04:27:44.120Z,18.64
2018-09-12T04:30:12.536Z,18.57
2018-09-12T04:32:40.735Z,18.52
2018-09-12T04:35:08.885Z,18.54
2018-09-12T04:37:37.088Z,18.53
2018-09-12T04:40:05.282Z,18.58
2018-09-12T04:42:33.602Z,18.57
2018-09-12T04:45:01.851Z,18.60
2018-09-12T04:47:30.036Z,18.58
2018-09-12T04:49:58.940Z,18.60
2018-09-12T04:52:27.105Z,18.56
2018-09-12T04:54:55.274Z,18.71
2018-09-12T04:57:23.405Z,18.61
2018-09-12T04:59:51.692Z,18.61
2018-09-12T05:02:19.962Z,18.60
2018-09-12T05:04:48.256Z,18.65
2018-09-12T05:07:16.559Z,18.66
2018-09-12T05:09:46.018Z,18.72
2018-09-12T05:12:14.454Z,18.76
2018-09-12T05:14:42.568Z,18.76
2018-09-12T05:17:10.762Z,18.74
2018-09-12T05:19:38.984Z,18.83
2018-09-12T05:22:07.223Z,18.86
2018-09-12T05:24:35.780Z,18.91
2018-09-12T05:27:04.178Z,19.05
2018-09-12T05:29:32.303Z,19.04
2018-09-12T05:32:00.587Z,19.21
2018-09-12T05:34:28.729Z,19.34
2018-09-12T05:36:56.932Z,19.52
2018-09-12T05:39:25.174Z,19.68
2018-09-12T05:41:53.404Z,19.77
2018-09-12T05:44:21.681Z,19.73
2018-09-12T05:46:49.876Z,19.86
2018-09-12T05:49:18.173Z,20.01
2018-09-12T05:51:46.381Z,20.06
2018-09-12T05:54:14.772Z,20.21
2018-09-12T05:56:42.978Z,20.42
2018-09-12T05:59:11.193Z,20.45
2018-09-12T06:01:39.401Z,20.58
2018-09-12T06:04:07.716Z,20.67
2018-09-12T06:06:36.040Z,20.81
2018-09-12T06:09:06.124Z,20.81
2018-09-12T06:11:34.286Z,20.84
2018-09-12T06:14:02.527Z,21.05
2018-09-12T06:16:30.806Z,20.97
2018-09-12T06:18:59.152Z,21.08
2018-09-12T06:21:27.556Z,21.13
2018-09-12T06:23:56.070Z,21.26
2018-09-12T06:26:24.391Z,21.33
2018-09-12T06:28:52.568Z,21.39
2018-09-12T06:31:20.842Z,21.36
2018-09-12T06:33:49.725Z,21.57
2018-09-12T06:36:18.257Z,21.64
2018-09-12T06:38:48.059Z,21.70
2018-09-12T06:41:17.027Z,21.76
2018-09-12T06:43:46.670Z,21.77
2018-09-12T06:46:15.733Z,21.81
2018-09-12T06:48:44.638Z,21.90
2018-09-12T06:51:13.204Z,21.97
2018-09-12T06:53:41.815Z,22.05
2018-09-12T06:56:10.075Z,22.16
2018-09-12T06:58:38.525Z,22.25
2018-09-12T07:01:07.002Z,22.20
2018-09-12T07:03:35.147Z,22.34
2018-09-12T07:06:03.953Z,22.32
2018-09-12T07:08:32.094Z,22.48
2018-09-12T07:11:01.219Z,22.52
2018-09-12T07:13:29.397Z,22.57
2018-09-12T07:15:57.908Z,22.57
2018-09-12T07:18:26.103Z,22.70
2018-09-12T07:20:54.276Z,22.72
2018-09-12T07:23:22.515Z,22.73
2018-09-12T07:25:50.628Z,22.74
2018-09-12T07:28:18.913Z,22.80
2018-09-12T07:30:47.151Z,22.79
2018-09-12T07:33:15.365Z,22.82
2018-09-12T07:35:43.598Z,22.82
2018-09-12T07:38:11.721Z,22.83
2018-09-12T07:40:39.915Z,22.90
2018-09-12T07:43:08.179Z,22.94
2018-09-12T07:45:36.481Z,23.00
2018-09-12T07:48:04.665Z,23.10
2018-09-12T07:50:32.917Z,23.19
2018-09-12T07:53:01.099Z,23.24
2018-09-12T07:55:29.461Z,23.24
2018-09-12T07:57:57.788Z,23.28
2018-09-12T08:00:26.041Z,23.31
2018-09-12T08:02:54.311Z,23.40
2018-09-12T08:05:22.713Z,23.44
2018-09-12T08:07:50.960Z,23.53
2018-09-12T08:10:19.108Z,23.57
2018-09-12T08:12:47.286Z,23.75
2018-09-12T08:15:15.509Z,24.02
2018-09-12T08:17:43.656Z,24.37
2018-09-12T08:20:11.953Z,24.54
2018-09-12T08:22:40.238Z,24.78
2018-09-12T08:25:08.566Z,24.85
2018-09-12T08:27:36.764Z,25.07
2018-09-12T08:30:05.160Z,25.09
2018-09-12T08:32:33.334Z,25.13
2018-09-12T08:35:01.520Z,25.29
2018-09-12T08:37:29.720Z,25.40
2018-09-12T08:39:57.957Z,25.52
2018-09-12T08:42:26.334Z,25.62
2018-09-12T08:44:54.564Z,25.86
2018-09-12T08:47:22.750Z,25.86
2018-09-12T08:49:51.348Z,26.02
2018-09-12T08:52:19.556Z,25.89
2018-09-12T08:54:47.760Z,26.13
2018-09-12T08:57:16.125Z,26.20
2018-09-12T08:59:44.318Z,26.06
2018-09-12T09:02:12.521Z,26.08
2018-09-12T09:04:41.389Z,26.02
2018-09-12T09:07:09.609Z,26.07
2018-09-12T09:09:37.885Z,26.04
2018-09-12T09:12:06.291Z,25.96
2018-09-12T09:14:34.457Z,25.78
2018-09-12T09:17:02.943Z,25.88
2018-09-12T09:19:31.208Z,25.90
2018-09-12T09:21:59.727Z,25.99
2018-09-12T09:24:27.872Z,25.97
2018-09-12T09:26:56.394Z,25.91
2018-09-12T09:29:24.637Z,25.72
2018-09-12T09:31:52.802Z,25.78
2018-09-12T09:34:20.986Z,25.85
2018-09-12T09:36:49.638Z,25.86
2018-09-12T09:39:17.940Z,25.95
2018-09-12T09:41:46.314Z,26.04
2018-09-12T09:44:14.547Z,26.36
2018-09-12T09:46:43.118Z,26.43
2018-09-12T09:49:11.229Z,26.62
2018-09-12T09:51:39.378Z,26.62
2018-09-12T09:54:07.508Z,26.62
2018-09-12T09:56:36.317Z,26.80
2018-09-12T09:59:04.535Z,26.65
2018-09-12T10:01:38.343Z,26.65
2018-09-12T10:04:12.032Z,26.55
2018-09-12T10:06:45.538Z,26.72
2018-09-12T10:09:19.082Z,26.83
2018-09-12T10:11:47.348Z,26.81
2018-09-12T10:14:15.622Z,26.68
2018-09-12T10:16:43.873Z,26.81
2018-09-12T10:19:12.078Z,26.89
2018-09-12T10:21:41.167Z,26.87
2018-09-12T10:24:09.458Z,27.03
2018-09-12T10:26:37.708Z,26.93
2018-09-12T10:29:05.896Z,26.92
2018-09-12T10:31:34.199Z,26.86
2018-09-12T10:34:02.433Z,26.83
2018-09-12T10:36:30.642Z,26.83
2018-09-12T10:38:59.115Z,26.62
2018-09-12T10:41:27.296Z,26.56
2018-09-12T10:43:55.455Z,26.91
2018-09-12T10:46:23.723Z,27.18
2018-09-12T10:48:51.988Z,27.52
2018-09-12T10:51:20.303Z,27.71
2018-09-12T10:53:48.622Z,27.74
2018-09-12T10:56:16.829Z,27.60
2018-09-12T10:58:45.121Z,27.50
2018-09-12T11:01:13.295Z,27.41
2018-09-12T11:03:41.530Z,27.53
2018-09-12T11:06:09.826Z,27.59
2018-09-12T11:08:38.019Z,27.63
2018-09-12T11:11:06.255Z,27.57
2018-09-12T11:13:34.617Z,27.69
2018-09-12T11:16:02.788Z,27.54
2018-09-12T11:18:30.936Z,27.51
2018-09-12T11:20:59.271Z,27.55
2018-09-12T11:23:27.430Z,27.23
2018-09-12T11:25:55.773Z,27.00
2018-09-12T11:28:24.219Z,26.77
2018-09-12T11:30:52.626Z,26.74
2018-09-12T11:33:20.887Z,26.91
2018-09-12T11:35:49.033Z,26.78
2018-09-12T11:38:17.568Z,26.78
2018-09-12T11:40:45.710Z,26.89
2018-09-12T11:43:13.961Z,27.03
2018-09-12T11:45:42.191Z,27.03
2018-09-12T11:48:10.355Z,27.02
2018-09-12T11:50:38.563Z,26.98
2018-09-12T11:53:07.541Z,27.15
2018-09-12T11:55:35.768Z,27.25
2018-09-12T11:58:04.276Z,27.08
2018-09-12T12:00:32.817Z,27.05
2018-09-12T12:03:01.143Z,26.80
2018-09-12T12:05:29.381Z,26.95
2018-09-12T12:07:57.648Z,27.08
2018-09-12T12:10:25.919Z,27.25
2018-09-12T12:12:54.141Z,27.39
2018-09-12T12:15:22.351Z,27.48
2018-09-12T12:17:50.646Z,27.52
2018-09-12T12:20:18.946Z,27.52
2018-09-12T12:22:47.213Z,27.63
2018-09-12T12:25:15.460Z,27.59
2018-09-12T12:27:43.691Z,27.78
2018-09-12T12:30:12.113Z,28.05
2018-09-12T12:32:40.691Z,28.25
2018-09-12T12:35:08.813Z,28.36
2018-09-12T12:37:37.097Z,28.39
2018-09-12T12:40:05.479Z,28.36
2018-09-12T12:42:33.752Z,28.49
2018-09-12T12:45:01.928Z,28.52
2018-09-12T12:47:30.097Z,28.51
2018-09-12T12:49:58.329Z,28.41
2018-09-12T12:52:26.679Z,28.38
2018-09-12T12:54:54.861Z,28.39
2018-09-12T12:57:24.122Z,28.60
2018-09-12T12:59:52.367Z,28.70
2018-09-12T13:02:21.415Z,28.53
2018-09-12T13:04:49.722Z,28.42
2018-09-12T13:07:18.125Z,28.47
2018-09-12T13:09:46.464Z,28.48
2018-09-12T13:12:14.628Z,28.59
2018-09-12T13:14:43.086Z,28.38
2018-09-12T13:17:11.285Z,28.51
2018-09-12T13:19:39.541Z,28.66
2018-09-12T13:22:07.739Z,28.58
2018-09-12T13:24:36.078Z,28.57
2018-09-12T13:27:04.953Z,28.33
2018-09-12T13:29:33.683Z,28.24
2018-09-12T13:32:01.905Z,28.25
2018-09-12T13:34:30.298Z,27.30
2018-09-12T13:36:59.732Z,27.12
2018-09-12T13:39:27.997Z,27.38
2018-09-12T13:41:56.188Z,27.65
2018-09-12T13:44:24.487Z,27.59
2018-09-12T13:46:52.730Z,27.30
2018-09-12T13:49:20.881Z,27.08
2018-09-12T13:51:49.082Z,27.06
2018-09-12T13:54:17.345Z,26.90
2018-09-12T13:56:45.629Z,27.02
2018-09-12T13:59:13.840Z,27.15
2018-09-12T14:01:42.044Z,27.07
2018-09-12T14:04:10.406Z,26.96
2018-09-12T14:06:38.605Z,27.03
2018-09-12T14:09:08.631Z,26.97
2018-09-12T14:11:37.001Z,26.86
2018-09-12T14:14:05.145Z,26.89
2018-09-12T14:16:33.309Z,27.07
2018-09-12T14:19:01.598Z,26.95
2018-09-12T14:21:29.831Z,26.98
2018-09-12T14:23:58.291Z,26.72
2018-09-12T14:26:26.477Z,27.01
2018-09-12T14:28:54.748Z,26.78
2018-09-12T14:31:23.811Z,26.84
2018-09-12T14:33:52.917Z,26.97
2018-09-12T14:36:21.611Z,26.91
2018-09-12T14:38:49.957Z,27.04
2018-09-12T14:41:18.394Z,27.10
2018-09-12T14:43:46.617Z,27.11
2018-09-12T14:46:15.141Z,26.93
2018-09-12T14:48:43.571Z,27.13
2018-09-12T14:51:13.222Z,26.93
2018-09-12T14:53:43.062Z,27.00
2018-09-12T14:56:11.331Z,26.98
2018-09-12T14:58:39.639Z,26.76
2018-09-12T15:01:07.882Z,26.39
2018-09-12T15:03:36.510Z,26.17
2018-09-12T15:06:04.853Z,26.20
2018-09-12T15:08:33.064Z,26.19
2018-09-12T15:11:01.277Z,26.12
2018-09-12T15:13:29.414Z,26.09
2018-09-12T15:15:57.613Z,26.22
2018-09-12T15:18:25.768Z,26.14
2018-09-12T15:20:54.446Z,25.93
2018-09-12T15:23:22.752Z,25.88
2018-09-12T15:25:51.009Z,25.73
2018-09-12T15:28:19.342Z,25.78
2018-09-12T15:30:47.519Z,25.57
2018-09-12T15:33:15.773Z,25.52
2018-09-12T15:35:44.093Z,25.26
2018-09-12T15:38:12.268Z,25.24
2018-09-12T15:40:40.464Z,25.07
2018-09-12T15:43:08.842Z,25.15
2018-09-12T15:45:37.116Z,25.07
2018-09-12T15:48:05.930Z,24.91
2018-09-12T15:50:34.070Z,24.88
2018-09-12T15:53:02.418Z,24.73
2018-09-12T15:55:31.284Z,24.57
2018-09-12T15:57:59.509Z,24.54
2018-09-12T16:00:27.659Z,24.55
2018-09-12T16:02:56.678Z,24.59
2018-09-12T16:05:25.236Z,24.63
2018-09-12T16:07:53.622Z,24.49
2018-09-12T16:10:21.900Z,24.41
2018-09-12T16:12:50.068Z,24.27
2018-09-12T16:15:18.363Z,24.32
2018-09-12T16:17:46.475Z,24.24
2018-09-12T16:20:14.654Z,24.14
2018-09-12T16:22:43.629Z,23.93
2018-09-12T16:25:11.947Z,23.69
2018-09-12T16:27:40.200Z,23.72
2018-09-12T16:30:08.587Z,23.42
2018-09-12T16:32:37.087Z,23.28
2018-09-12T16:35:05.267Z,23.22
2018-09-12T16:37:33.525Z,23.15
2018-09-12T16:40:01.910Z,22.97
2018-09-12T16:42:30.470Z,22.85
2018-09-12T16:44:58.855Z,22.65
2018-09-12T16:47:27.203Z,22.74
2018-09-12T16:49:55.388Z,22.53
2018-09-12T16:52:23.543Z,22.31
2018-09-12T16:54:51.814Z,22.16
2018-09-12T16:57:20.023Z,21.83
2018-09-12T16:59:48.325Z,21.76
2018-09-12T17:02:16.562Z,21.66
2018-09-12T17:04:44.763Z,21.57
2018-09-12T17:07:13.076Z,21.45
2018-09-12T17:09:41.313Z,21.43
2018-09-12T17:12:09.612Z,21.29
2018-09-12T17:14:37.829Z,21.03
2018-09-12T17:17:06.465Z,20.96
2018-09-12T17:19:34.838Z,20.90
2018-09-12T17:22:03.058Z,20.83
2018-09-12T17:24:31.207Z,20.78
2018-09-12T17:26:59.348Z,20.79
2018-09-12T17:29:27.549Z,20.79
2018-09-12T17:31:55.900Z,20.68
2018-09-12T17:34:24.256Z,20.62
2018-09-12T17:36:52.870Z,20.66
2018-09-12T17:39:21.284Z,20.60
2018-09-12T17:41:49.479Z,20.52
2018-09-12T17:44:17.759Z,20.63
2018-09-12T17:46:46.123Z,20.72
2018-09-12T17:49:14.344Z,20.79
2018-09-12T17:51:42.543Z,20.86
2018-09-12T17:54:10.758Z,20.73
2018-09-12T17:56:38.985Z,20.69
2018-09-12T17:59:07.189Z,20.64
2018-09-12T18:01:35.523Z,20.65
2018-09-12T18:04:03.831Z,20.62
2018-09-12T18:06:32.117Z,20.50
2018-09-12T18:09:00.493Z,20.58
2018-09-12T18:11:28.680Z,20.55
2018-09-12T18:13:56.846Z,20.17
2018-09-12T18:16:25.194Z,19.93
2018-09-12T18:18:53.398Z,19.84
2018-09-12T18:21:21.596Z,19.87
2018-09-12T18:23:49.921Z,19.95
2018-09-12T18:26:18.103Z,20.10
2018-09-12T18:28:46.829Z,19.94
2018-09-12T18:31:15.061Z,19.97
2018-09-12T18:33:44.088Z,20.01
2018-09-12T18:36:12.401Z,19.89
2018-09-12T18:38:40.756Z,19.87
2018-09-12T18:41:09.180Z,19.76
2018-09-12T18:43:37.495Z,19.72
2018-09-12T18:46:05.706Z,19.47
2018-09-12T18:48:34.011Z,19.45
2018-09-12T18:51:08.264Z,19.31
2018-09-12T18:53:37.082Z,19.28
2018-09-12T18:56:06.866Z,19.38
2018-09-12T18:58:35.362Z,19.40
2018-09-12T19:01:04.241Z,19.35
2018-09-12T19:03:32.745Z,19.39
2018-09-12T19:06:01.101Z,19.26
2018-09-12T19:08:30.197Z,19.21
2018-09-12T19:10:59.269Z,19.02
2018-09-12T19:13:28.824Z,18.96
2018-09-12T19:15:57.527Z,18.95
2018-09-12T19:18:26.257Z,18.76
2018-09-12T19:20:54.677Z,18.81
2018-09-12T19:23:23.164Z,18.68
2018-09-12T19:25:51.485Z,18.84
2018-09-12T19:28:20.033Z,18.86
2018-09-12T19:30:48.743Z,18.79
2018-09-12T19:33:17.167Z,18.81
2018-09-12T19:35:45.638Z,18.72
2018-09-12T19:38:13.849Z,18.78
2018-09-12T19:40:43.458Z,18.72
2018-09-12T19:43:11.620Z,18.69
2018-09-12T19:45:40.213Z,18.64
2018-09-12T19:48:08.531Z,18.64
2018-09-12T19:50:36.760Z,18.62
2018-09-12T19:53:05.059Z,18.51
2018-09-12T19:55:33.388Z,18.19
2018-09-12T19:58:01.901Z,18.21
2018-09-12T20:00:30.237Z,18.32
2018-09-12T20:02:58.628Z,18.13
2018-09-12T20:05:27.497Z,18.33
2018-09-12T20:07:55.761Z,18.16
2018-09-12T20:10:24.600Z,18.01
2018-09-12T20:12:52.908Z,18.14
2018-09-12T20:15:21.572Z,17.96
2018-09-12T20:17:49.912Z,18.06
2018-09-12T20:20:18.243Z,18.10
2018-09-12T20:22:46.479Z,18.05
2018-09-12T20:25:14.682Z,17.97
2018-09-12T20:27:42.945Z,17.95
2018-09-12T20:30:11.682Z,18.18
2018-09-12T20:32:39.873Z,18.22
2018-09-12T20:35:08.273Z,18.19
2018-09-12T20:37:36.592Z,18.06
2018-09-12T20:40:05.301Z,18.18
2018-09-12T20:42:33.522Z,18.14
2018-09-12T20:45:01.812Z,18.14
2018-09-12T20:47:29.980Z,18.14
2018-09-12T20:49:58.835Z,17.95
2018-09-12T20:52:27.051Z,17.92
2018-09-12T20:54:55.280Z,17.83
2018-09-12T20:57:23.541Z,17.83
2018-09-12T20:59:52.875Z,17.75
2018-09-12T21:02:21.029Z,17.65
2018-09-12T21:04:49.164Z,17.79
2018-09-12T21:07:17.685Z,17.71
2018-09-12T21:09:45.869Z,17.82
2018-09-12T21:12:14.065Z,17.87
2018-09-12T21:14:42.257Z,17.93
2018-09-12T21:17:10.449Z,17.84
2018-09-12T21:19:38.778Z,17.69
2018-09-12T21:22:07.193Z,17.67
2018-09-12T21:24:36.817Z,17.72
2018-09-12T21:27:05.012Z,17.53
2018-09-12T21:29:33.326Z,17.72
2018-09-12T21:32:01.790Z,17.71
2018-09-12T21:34:30.280Z,17.90
2018-09-12T21:36:58.612Z,17.85
2018-09-12T21:39:26.811Z,17.93
2018-09-12T21:41:54.992Z,17.97
2018-09-12T21:44:23.160Z,17.79
2018-09-12T21:46:51.352Z,17.96
2018-09-12T21:49:19.510Z,17.97
2018-09-12T21:51:47.931Z,17.78
2018-09-12T21:54:16.142Z,17.76
2018-09-12T21:56:44.282Z,17.95
2018-09-12T21:59:12.538Z,17.87
2018-09-12T22:01:40.836Z,17.72
2018-09-12T22:04:09.058Z,17.83
2018-09-12T22:06:37.192Z,17.93
2018-09-12T22:09:08.524Z,17.67
2018-09-12T22:11:36.691Z,17.86
2018-09-12T22:14:04.869Z,17.78
2018-09-12T22:16:33.829Z,17.62
2018-09-12T22:19:02.257Z,17.66
2018-09-12T22:21:30.577Z,17.57
2018-09-12T22:23:58.787Z,17.55
2018-09-12T22:26:27.026Z,17.53
2018-09-12T22:28:55.303Z,17.60
2018-09-12T22:31:23.589Z,17.54
2018-09-12T22:33:51.869Z,17.49
2018-09-12T22:36:20.136Z,17.70
2018-09-12T22:38:48.511Z,17.69
2018-09-12T22:41:16.752Z,17.55
2018-09-12T22:43:45.099Z,17.53
2018-09-12T22:46:13.260Z,17.69
2018-09-12T22:48:41.458Z,17.52
2018-09-12T22:51:09.713Z,17.48
2018-09-12T22:53:38.072Z,17.53
2018-09-12T22:56:06.562Z,17.67
2018-09-12T22:58:34.723Z,17.63
2018-09-12T23:01:02.895Z,17.52
2018-09-12T23:03:31.029Z,17.54
2018-09-12T23:05:59.181Z,17.65
2018-09-12T23:08:27.454Z,17.64
2018-09-12T23:10:55.656Z,17.67
2018-09-12T23:13:25.222Z,17.58
2018-09-12T23:15:53.449Z,17.53
2018-09-12T23:18:21.608Z,17.70
2018-09-12T23:20:49.824Z,17.59
2018-09-12T23:23:17.957Z,17.56
2018-09-12T23:25:46.210Z,17.64
2018-09-12T23:28:14.412Z,17.61
2018-09-12T23:30:42.554Z,17.62
2018-09-12T23:33:10.842Z,17.59
2018-09-12T23:35:39.016Z,17.65
2018-09-12T23:38:07.247Z,17.54
2018-09-12T23:40:35.728Z,17.61
2018-09-12T23:43:03.946Z,17.57
2018-09-12T23:45:32.092Z,17.56
2018-09-12T23:48:00.229Z,17.47
2018-09-12T23:50:28.532Z,17.39
2018-09-12T23:52:56.914Z,17.56
2018-09-12T23:55:25.084Z,17.58
2018-09-12T23:57:53.258Z,17.47
